CST,Max TemperatureF,Mean TemperatureF,Min TemperatureF,Max Dew PointF,MeanDew PointF,Min DewpointF,Max Humidity, Mean Humidity, Min Humidity, Max Sea Level PressureIn, Mean Sea Level PressureIn, Min Sea Level PressureIn, Max VisibilityMiles, Mean VisibilityMiles, Min VisibilityMiles, Max Wind SpeedMPH, Mean Wind SpeedMPH, Max Gust SpeedMPH,PrecipitationIn, CloudCover, Events, WindDirDegrees
2012-11-1,73,56,39,49,43,37,93,72,33,30.08,29.99,29.93,10,9,6,5,0,,0.00,0,,60
2012-11-2,80,61,43,57,50,41,97,72,45,29.99,29.94,29.90,10,10,6,6,1,,0.00,0,,120
2012-11-3,78,63,48,57,49,40,97,69,37,30.12,30.00,29.93,10,8,2,16,3,18,0.00,0,,298
2012-11-4,64,52,41,43,41,39,93,69,40,30.21,30.15,30.10,10,10,9,6,1,,0.00,0,,130
2012-11-5,62,53,44,52,44,40,90,70,56,30.10,30.01,29.92,10,10,8,6,1,,0.01,6,Rain-Thunderstorm,333
2012-11-6,63,52,39,42,40,37,93,64,43,30.11,30.04,29.98,10,10,10,9,5,17,0.00,4,,307
2012-11-7,66,50,35,40,34,26,96,65,21,30.17,30.10,30.06,10,9,6,13,2,18,0.00,0,,329
2012-11-8,66,50,35,42,38,32,93,65,36,30.24,30.15,30.08,10,10,10,7,1,,0.00,0,,116
2012-11-9,75,62,50,56,49,41,72,64,51,30.12,30.06,29.97,10,10,10,8,3,,0.00,2,,153
2012-11-10,75,65,55,58,54,45,84,67,48,30.12,30.03,29.94,10,10,10,10,3,18,0.00,2,,156
2012-11-11,68,58,46,63,57,43,100,88,65,30.15,29.94,29.83,10,7,1,22,6,38,0.83,8,Rain-Thunderstorm,257
2012-11-12,53,43,32,43,29,20,89,64,35,30.50,30.39,30.19,10,10,10,12,7,18,0.00,1,,305
2012-11-13,55,42,28,33,29,23,92,68,31,30.55,30.46,30.38,10,10,8,5,1,,0.00,0,,120
2012-11-14,57,44,30,34,31,27,93,71,34,30.46,30.38,30.32,10,10,9,5,1,,0.00,0,,285
2012-11-15,57,42,28,36,31,27,96,73,35,30.39,30.34,30.29,10,9,6,4,0,,0.00,0,,200
2012-11-16,62,45,28,37,32,27,96,73,31,30.45,30.39,30.35,10,8,3,5,0,,0.00,0,,-1
2012-11-17,62,46,30,35,30,25,92,67,24,30.47,30.40,30.33,10,9,6,5,1,,0.00,0,,93
2012-11-18,64,47,30,40,35,28,96,68,35,30.38,30.32,30.26,10,8,4,5,0,,0.00,0,,100
2012-11-19,57,50,43,51,45,38,100,85,59,30.29,30.22,30.18,10,5,1,6,1,,0.07,5,Rain,235
2012-11-20,73,55,37,52,43,37,100,86,44,30.20,30.16,30.08,10,4,0,10,0,,0.00,0,Fog,294
2012-11-21,71,53,35,48,40,34,100,79,30,30.29,30.22,30.16,10,7,2,5,0,,0.05,0,,220
2012-11-22,72,56,39,56,47,37,100,75,38,30.17,30.11,30.03,10,7,2,8,2,,0.22,2,Rain,183
2012-11-23,62,52,39,55,38,22,100,63,25,30.40,30.26,30.12,10,8,2,16,4,24,0.00,3,,323
2012-11-24,50,38,26,27,23,15,85,57,29,30.40,30.28,30.12,10,10,10,6,2,,0.00,0,,288
2012-11-25,66,47,28,40,32,25,89,63,32,30.10,30.00,29.90,10,10,4,8,1,,0.00,0,,149
2012-11-26,59,49,39,52,41,30,93,72,54,30.29,30.07,29.96,10,10,7,15,3,25,0.00,7,Rain,27
2012-11-27,53,42,30,32,29,26,92,67,35,30.43,30.35,30.30,10,10,10,8,3,,0.00,1,,356
2012-11-28,57,42,26,35,31,23,92,70,42,30.48,30.38,30.31,10,10,8,5,1,,0.00,0,,119
2012-11-29,64,47,30,37,32,27,92,63,25,30.31,30.24,30.16,10,10,6,6,1,,0.00,0,,154
2012-11-30,66,51,36,55,44,32,89,70,47,30.21,30.15,30.09,10,10,10,8,1,,0.00,6,,115